createdAt,value
2018-08-31T00:02:55.487Z,5.77
2018-08-31T00:05:58.665Z,5.33
2018-08-31T00:09:38.952Z,5.37
2018-08-31T00:12:43.772Z,6.43
2018-08-31T00:15:12.137Z,5.93
2018-08-31T00:17:41.693Z,6.20
2018-08-31T00:20:11.033Z,6.00
2018-08-31T00:22:39.374Z,6.47
2018-08-31T00:25:20.245Z,5.80
2018-08-31T00:28:00.279Z,6.63
2018-08-31T00:31:41.769Z,6.93
2018-08-31T00:34:23.284Z,7.23
2018-08-31T00:39:41.485Z,7.40
2018-08-31T00:42:20.689Z,8.10
2018-08-31T00:45:01.742Z,8.30
2018-08-31T00:47:30.129Z,8.03
2018-08-31T00:49:58.525Z,8.80
2018-08-31T00:52:26.842Z,5.63
2018-08-31T00:54:55.179Z,7.00
2018-08-31T00:57:23.530Z,6.83
2018-08-31T00:59:51.866Z,6.30
2018-08-31T01:02:20.184Z,6.70
2018-08-31T01:04:48.504Z,5.27
2018-08-31T01:07:16.839Z,5.47
2018-08-31T01:09:45.198Z,5.73
2018-08-31T01:12:13.530Z,5.40
2018-08-31T01:14:41.871Z,5.50
2018-08-31T01:17:10.196Z,5.23
2018-08-31T01:19:38.591Z,5.30
2018-08-31T01:22:06.965Z,5.23
2018-08-31T01:24:35.313Z,4.47
2018-08-31T01:27:03.681Z,4.37
2018-08-31T01:29:32.032Z,4.60
2018-08-31T01:32:00.378Z,4.80
2018-08-31T01:34:28.698Z,4.47
2018-08-31T01:36:57.040Z,4.70
2018-08-31T01:39:25.441Z,4.70
2018-08-31T01:41:53.806Z,5.40
2018-08-31T01:44:22.136Z,5.33
2018-08-31T01:46:50.493Z,5.67
2018-08-31T01:49:18.838Z,5.67
2018-08-31T01:51:47.192Z,6.57
2018-08-31T01:54:15.549Z,6.43
2018-08-31T01:56:43.880Z,6.30
2018-08-31T01:59:12.250Z,6.07
2018-08-31T02:01:40.637Z,7.20
2018-08-31T02:04:09.037Z,5.63
2018-08-31T02:06:37.337Z,4.37
2018-08-31T02:09:12.258Z,4.93
2018-08-31T02:11:40.665Z,4.10
2018-08-31T02:14:09.009Z,5.00
2018-08-31T02:16:37.568Z,5.00
2018-08-31T02:19:05.889Z,5.57
2018-08-31T02:21:34.286Z,5.30
2018-08-31T02:24:03.305Z,5.17
2018-08-31T02:26:31.682Z,5.23
2018-08-31T02:29:00.050Z,5.37
2018-08-31T02:31:28.397Z,5.13
2018-08-31T02:33:56.752Z,5.03
2018-08-31T02:36:25.125Z,4.67
2018-08-31T02:38:53.705Z,4.43
2018-08-31T02:41:22.166Z,4.60
2018-08-31T02:43:51.345Z,4.47
2018-08-31T02:46:20.870Z,4.47
2018-08-31T02:48:50.175Z,4.93
2018-08-31T02:51:18.545Z,5.27
2018-08-31T02:53:46.876Z,4.70
2018-08-31T02:56:15.377Z,4.47
2018-08-31T02:58:43.875Z,5.93
2018-08-31T03:01:12.216Z,5.70
2018-08-31T03:03:40.541Z,5.10
2018-08-31T03:06:08.885Z,4.37
2018-08-31T03:08:37.288Z,4.90
2018-08-31T03:11:05.681Z,4.37
2018-08-31T03:13:34.015Z,4.70
2018-08-31T03:16:02.376Z,5.30
2018-08-31T03:18:30.757Z,5.47
2018-08-31T03:20:59.080Z,5.77
2018-08-31T03:23:27.442Z,6.10
2018-08-31T03:25:55.780Z,6.17
2018-08-31T03:28:24.152Z,6.40
2018-08-31T03:30:52.488Z,4.67
2018-08-31T03:33:20.833Z,4.90
2018-08-31T03:35:49.165Z,5.10
2018-08-31T03:38:17.495Z,4.63
2018-08-31T03:40:45.809Z,4.90
2018-08-31T03:43:14.172Z,5.23
2018-08-31T03:45:42.500Z,5.03
2018-08-31T03:48:10.818Z,5.10
2018-08-31T03:50:39.122Z,5.57
2018-08-31T03:53:07.505Z,4.70
2018-08-31T03:55:35.840Z,5.23
2018-08-31T03:58:04.233Z,5.63
2018-08-31T04:00:32.617Z,5.07
2018-08-31T04:03:00.929Z,5.80
2018-08-31T04:05:29.245Z,5.87
2018-08-31T04:07:57.597Z,5.67
2018-08-31T04:10:25.909Z,6.17
2018-08-31T04:12:54.256Z,6.30
2018-08-31T04:15:22.568Z,7.07
2018-08-31T04:17:51.398Z,5.90
2018-08-31T04:20:19.712Z,6.50
2018-08-31T04:22:48.065Z,6.53
2018-08-31T04:25:16.377Z,6.33
2018-08-31T04:27:44.713Z,6.67
2018-08-31T04:30:13.033Z,6.90
2018-08-31T04:32:41.379Z,8.53
2018-08-31T04:35:09.685Z,7.73
2018-08-31T04:37:38.065Z,8.50
2018-08-31T04:40:06.911Z,6.67
2018-08-31T04:42:35.269Z,6.37
2018-08-31T04:45:03.597Z,6.23
2018-08-31T04:47:31.959Z,6.33
2018-08-31T04:50:00.268Z,8.17
2018-08-31T04:52:28.622Z,7.13
2018-08-31T04:54:56.937Z,7.17
2018-08-31T04:57:25.289Z,6.27
2018-08-31T04:59:53.617Z,6.43
2018-08-31T05:02:21.957Z,8.03
2018-08-31T05:04:50.277Z,8.00
2018-08-31T05:07:18.627Z,21.40
2018-08-31T05:09:46.957Z,10.27
2018-08-31T05:12:15.286Z,5.83
2018-08-31T05:14:43.670Z,6.37
2018-08-31T05:17:11.997Z,6.47
2018-08-31T05:19:40.328Z,8.30
2018-08-31T05:22:08.664Z,10.10
2018-08-31T05:24:37.012Z,6.77
2018-08-31T05:27:05.361Z,6.20
2018-08-31T05:29:33.760Z,5.87
2018-08-31T05:32:02.098Z,5.47
2018-08-31T05:34:30.470Z,5.93
2018-08-31T05:36:58.807Z,5.47
2018-08-31T05:39:27.146Z,6.20
2018-08-31T05:41:55.475Z,5.90
2018-08-31T05:44:23.809Z,6.10
2018-08-31T05:46:52.126Z,6.87
2018-08-31T05:49:20.458Z,5.80
2018-08-31T05:51:48.754Z,5.47
2018-08-31T05:54:17.093Z,5.37
2018-08-31T05:56:45.406Z,5.03
2018-08-31T05:59:13.737Z,5.90
2018-08-31T06:01:42.061Z,5.37
2018-08-31T06:04:10.509Z,5.73
2018-08-31T06:06:38.849Z,5.20
2018-08-31T06:09:08.607Z,5.20
2018-08-31T06:11:36.913Z,5.30
2018-08-31T06:14:05.495Z,5.13
2018-08-31T06:16:33.800Z,4.93
2018-08-31T06:19:02.210Z,5.17
2018-08-31T06:21:30.700Z,4.50
2018-08-31T06:23:59.065Z,5.80
2018-08-31T06:26:27.413Z,5.97
2018-08-31T06:28:55.753Z,5.40
2018-08-31T06:31:24.097Z,4.80
2018-08-31T06:33:52.474Z,4.50
2018-08-31T06:36:20.794Z,3.90
2018-08-31T06:38:49.102Z,3.27
2018-08-31T06:41:17.412Z,3.77
2018-08-31T06:43:45.730Z,3.67
2018-08-31T06:46:14.045Z,4.63
2018-08-31T06:48:42.357Z,5.43
2018-08-31T06:51:10.661Z,5.30
2018-08-31T06:53:38.973Z,4.60
2018-08-31T06:56:07.308Z,3.67
2018-08-31T06:58:35.605Z,3.30
2018-08-31T07:01:03.969Z,3.60
2018-08-31T07:03:32.286Z,3.47
2018-08-31T07:06:00.634Z,3.27
2018-08-31T07:08:28.956Z,3.33
2018-08-31T07:10:57.298Z,2.87
2018-08-31T07:13:25.749Z,3.10
2018-08-31T07:15:54.109Z,3.23
2018-08-31T07:18:22.558Z,4.40
2018-08-31T07:20:50.973Z,4.37
2018-08-31T07:23:19.314Z,4.43
2018-08-31T07:25:47.658Z,4.27
2018-08-31T07:28:16.025Z,4.70
2018-08-31T07:30:44.369Z,4.80
2018-08-31T07:33:12.722Z,4.20
2018-08-31T07:35:41.081Z,4.90
2018-08-31T07:38:09.414Z,5.03
2018-08-31T07:40:37.781Z,5.23
2018-08-31T07:43:06.110Z,4.57
2018-08-31T07:45:34.444Z,4.47
2018-08-31T07:48:02.756Z,2.60
2018-08-31T07:50:31.093Z,2.47
2018-08-31T07:52:59.406Z,2.60
2018-08-31T07:55:27.765Z,2.53
2018-08-31T07:57:56.082Z,2.13
2018-08-31T08:00:24.433Z,2.23
2018-08-31T08:02:52.757Z,2.00
2018-08-31T08:05:21.125Z,2.00
2018-08-31T08:07:49.454Z,2.20
2018-08-31T08:10:17.814Z,1.60
2018-08-31T08:12:46.178Z,2.20
2018-08-31T08:15:14.509Z,2.00
2018-08-31T08:17:42.854Z,2.00
2018-08-31T08:20:11.165Z,2.30
2018-08-31T08:22:39.546Z,2.53
2018-08-31T08:25:07.913Z,2.17
2018-08-31T08:27:36.305Z,1.93
2018-08-31T08:30:04.708Z,2.30
2018-08-31T08:32:33.048Z,2.20
2018-08-31T08:35:01.362Z,2.20
2018-08-31T08:37:29.696Z,2.23
2018-08-31T08:39:58.018Z,2.33
2018-08-31T08:42:26.417Z,2.37
2018-08-31T08:44:54.783Z,2.50
2018-08-31T08:47:23.149Z,2.77
2018-08-31T08:49:51.458Z,2.50
2018-08-31T08:52:19.802Z,2.30
2018-08-31T08:54:48.150Z,2.13
2018-08-31T08:57:16.496Z,2.33
2018-08-31T08:59:45.042Z,2.00
2018-08-31T09:02:13.391Z,2.03
2018-08-31T09:04:41.737Z,2.27
2018-08-31T09:07:12.032Z,2.23
2018-08-31T09:09:40.349Z,2.20
2018-08-31T09:12:08.682Z,2.73
2018-08-31T09:14:36.990Z,2.40
2018-08-31T09:17:05.330Z,2.03
2018-08-31T09:19:33.643Z,2.60
2018-08-31T09:22:02.014Z,2.33
2018-08-31T09:24:30.354Z,2.30
2018-08-31T09:26:58.693Z,2.10
2018-08-31T09:29:27.009Z,2.57
2018-08-31T09:31:55.353Z,2.40
2018-08-31T09:34:23.669Z,2.20
2018-08-31T09:36:51.994Z,2.03
2018-08-31T09:39:20.369Z,2.10
2018-08-31T09:41:48.682Z,2.10
2018-08-31T09:44:17.005Z,2.63
2018-08-31T09:46:45.329Z,2.10
2018-08-31T09:49:13.638Z,2.37
2018-08-31T09:51:41.950Z,2.70
2018-08-31T09:54:10.282Z,2.87
2018-08-31T09:56:38.584Z,2.50
2018-08-31T09:59:06.909Z,2.40
2018-08-31T10:01:36.235Z,2.80
2018-08-31T10:04:04.940Z,2.77
2018-08-31T10:06:34.117Z,2.63
2018-08-31T10:09:02.493Z,2.60
2018-08-31T10:11:30.829Z,2.63
2018-08-31T10:13:59.190Z,2.67
2018-08-31T10:16:27.510Z,3.30
2018-08-31T10:18:55.848Z,2.87
2018-08-31T10:21:24.177Z,2.70
2018-08-31T10:23:52.545Z,2.40
2018-08-31T10:26:20.877Z,2.13
2018-08-31T10:28:49.218Z,2.80
2018-08-31T10:31:17.538Z,2.73
2018-08-31T10:33:45.866Z,2.50
2018-08-31T10:36:14.290Z,2.40
2018-08-31T10:38:42.634Z,2.40
2018-08-31T10:41:10.964Z,3.40
2018-08-31T10:43:39.343Z,3.13
2018-08-31T10:46:07.683Z,2.33
2018-08-31T10:48:36.237Z,2.47
2018-08-31T10:51:04.581Z,2.20
2018-08-31T10:53:32.935Z,2.33
2018-08-31T10:56:01.253Z,2.13
2018-08-31T10:58:29.601Z,2.63
2018-08-31T11:00:57.946Z,2.50
2018-08-31T11:03:26.293Z,2.60
2018-08-31T11:05:54.611Z,2.67
2018-08-31T11:08:22.958Z,2.83
2018-08-31T11:10:51.294Z,2.60
2018-08-31T11:13:19.657Z,3.10
2018-08-31T11:15:47.990Z,3.00
2018-08-31T11:18:16.326Z,3.50
2018-08-31T11:20:44.664Z,3.10
2018-08-31T11:23:13.048Z,3.20
2018-08-31T11:25:41.401Z,3.70
2018-08-31T11:28:09.754Z,3.30
2018-08-31T11:30:38.065Z,2.70
2018-08-31T11:33:06.406Z,2.97
2018-08-31T11:35:34.717Z,3.30
2018-08-31T11:38:03.049Z,3.17
2018-08-31T11:40:31.381Z,2.80
2018-08-31T11:42:59.746Z,3.10
2018-08-31T11:45:28.088Z,3.20
2018-08-31T11:47:56.410Z,3.53
2018-08-31T11:50:24.756Z,3.17
2018-08-31T11:52:53.074Z,3.50
2018-08-31T11:55:21.481Z,3.07
2018-08-31T11:57:49.753Z,3.20
2018-08-31T12:00:18.101Z,2.83
2018-08-31T12:02:46.448Z,3.80
2018-08-31T12:05:14.800Z,4.00
2018-08-31T12:07:43.188Z,4.00
2018-08-31T12:10:11.540Z,3.17
2018-08-31T12:12:39.875Z,3.33
2018-08-31T12:15:08.257Z,3.30
2018-08-31T12:17:36.586Z,3.50
2018-08-31T12:20:05.051Z,3.50
2018-08-31T12:22:34.215Z,3.00
2018-08-31T12:25:02.652Z,3.00
2018-08-31T12:27:32.338Z,3.07
2018-08-31T12:30:00.887Z,3.10
2018-08-31T12:32:29.222Z,3.63
2018-08-31T12:34:57.550Z,3.10
2018-08-31T12:37:25.899Z,3.07
2018-08-31T12:39:54.266Z,3.10
2018-08-31T12:42:22.593Z,3.50
2018-08-31T12:44:50.989Z,3.27
2018-08-31T12:47:19.325Z,3.23
2018-08-31T12:49:47.652Z,2.90
2018-08-31T12:52:15.969Z,3.00
2018-08-31T12:54:44.294Z,3.20
2018-08-31T12:57:12.605Z,4.03
2018-08-31T12:59:45.241Z,3.10
2018-08-31T13:02:22.295Z,3.13
2018-08-31T13:04:52.628Z,3.17
2018-08-31T13:07:22.486Z,3.40
2018-08-31T13:09:52.559Z,3.50
2018-08-31T13:12:20.881Z,3.47
2018-08-31T13:14:49.926Z,3.23
2018-08-31T13:17:18.234Z,3.07
2018-08-31T13:19:46.570Z,2.90
2018-08-31T13:22:14.949Z,3.33
2018-08-31T13:24:45.516Z,2.73
2018-08-31T13:27:13.843Z,3.17
2018-08-31T13:29:42.805Z,3.10
2018-08-31T13:32:11.105Z,3.00
2018-08-31T13:34:39.469Z,3.37
2018-08-31T13:37:08.901Z,3.20
2018-08-31T13:39:37.239Z,3.40
2018-08-31T13:42:05.585Z,3.30
2018-08-31T13:44:33.913Z,3.33
2018-08-31T13:47:02.217Z,3.30
2018-08-31T13:49:30.546Z,3.10
2018-08-31T13:51:59.823Z,3.33
2018-08-31T13:54:28.127Z,2.90
2018-08-31T13:56:56.443Z,3.10
2018-08-31T13:59:24.801Z,3.13
2018-08-31T14:01:53.109Z,3.03
2018-08-31T14:04:21.406Z,3.37
2018-08-31T14:06:49.816Z,2.90
2018-08-31T14:09:18.125Z,3.27
2018-08-31T14:11:46.471Z,3.33
2018-08-31T14:14:14.777Z,2.80
2018-08-31T14:16:43.114Z,3.27
2018-08-31T14:19:11.434Z,3.03
2018-08-31T14:21:40.006Z,2.90
2018-08-31T14:24:08.694Z,3.10
2018-08-31T14:26:37.050Z,2.70
2018-08-31T14:29:05.378Z,2.97
2018-08-31T14:31:33.705Z,3.00
2018-08-31T14:34:02.017Z,3.00
2018-08-31T14:36:30.392Z,3.53
2018-08-31T14:38:58.657Z,3.20
2018-08-31T14:41:26.990Z,2.80
2018-08-31T14:43:55.313Z,3.50
2018-08-31T14:46:23.647Z,2.90
2018-08-31T14:48:51.965Z,3.13
2018-08-31T14:51:20.307Z,2.90
2018-08-31T14:53:48.625Z,2.47
2018-08-31T14:56:16.993Z,2.90
2018-08-31T14:58:45.358Z,2.70
2018-08-31T15:01:13.669Z,3.00
2018-08-31T15:03:41.990Z,2.87
2018-08-31T15:06:10.325Z,3.10
2018-08-31T15:08:38.643Z,2.83
2018-08-31T15:11:06.996Z,3.07
2018-08-31T15:13:35.315Z,2.87
2018-08-31T15:16:03.673Z,2.77
2018-08-31T15:18:31.987Z,2.50
2018-08-31T15:21:00.318Z,3.00
2018-08-31T15:23:28.801Z,2.63
2018-08-31T15:25:57.185Z,3.00
2018-08-31T15:28:25.581Z,2.87
2018-08-31T15:30:53.954Z,2.70
2018-08-31T15:33:23.908Z,2.60
2018-08-31T15:35:52.257Z,2.47
2018-08-31T15:38:20.586Z,3.07
2018-08-31T15:40:48.945Z,2.90
2018-08-31T15:43:17.286Z,2.67
2018-08-31T15:45:45.605Z,2.03
2018-08-31T15:48:13.929Z,2.30
2018-08-31T15:50:42.271Z,2.37
2018-08-31T15:53:10.864Z,2.33
2018-08-31T15:55:39.181Z,2.43
2018-08-31T15:58:07.538Z,2.17
2018-08-31T16:00:35.848Z,2.70
2018-08-31T16:03:04.185Z,2.00
2018-08-31T16:05:32.511Z,2.53
2018-08-31T16:08:00.882Z,2.70
2018-08-31T16:10:29.194Z,2.30
2018-08-31T16:12:57.545Z,2.07
2018-08-31T16:15:25.862Z,2.40
2018-08-31T16:17:54.198Z,2.40
2018-08-31T16:20:22.527Z,1.97
2018-08-31T16:22:50.882Z,2.20
2018-08-31T16:25:19.216Z,2.20
2018-08-31T16:27:47.586Z,2.13
2018-08-31T16:30:15.897Z,2.60
2018-08-31T16:32:44.242Z,2.20
2018-08-31T16:35:12.665Z,2.00
2018-08-31T16:37:41.017Z,2.20
2018-08-31T16:40:09.366Z,2.23
2018-08-31T16:42:37.721Z,2.23
2018-08-31T16:45:06.037Z,2.00
2018-08-31T16:47:34.390Z,1.97
2018-08-31T16:50:02.759Z,2.03
2018-08-31T16:52:32.326Z,2.17
2018-08-31T16:55:00.630Z,2.00
2018-08-31T16:57:28.941Z,1.80
2018-08-31T16:59:57.473Z,2.03
2018-08-31T17:02:25.832Z,2.27
2018-08-31T17:04:54.930Z,2.00
2018-08-31T17:07:23.254Z,2.10
2018-08-31T17:09:51.583Z,1.90
2018-08-31T17:12:19.894Z,2.20
2018-08-31T17:14:48.205Z,2.00
2018-08-31T17:17:16.524Z,1.93
2018-08-31T17:19:44.853Z,2.13
2018-08-31T17:22:13.267Z,1.97
2018-08-31T17:24:41.585Z,2.17
2018-08-31T17:27:15.260Z,1.53
2018-08-31T17:29:46.621Z,1.87
2018-08-31T17:32:20.669Z,1.63
2018-08-31T17:34:54.489Z,2.00
2018-08-31T17:37:28.242Z,2.00
2018-08-31T17:39:57.297Z,1.87
2018-08-31T17:42:26.853Z,1.90
2018-08-31T17:44:55.176Z,2.10
2018-08-31T17:47:23.511Z,2.00
2018-08-31T17:49:51.877Z,2.07
2018-08-31T17:52:20.266Z,2.20
2018-08-31T17:54:49.080Z,2.03
2018-08-31T17:57:17.433Z,1.60
2018-08-31T17:59:45.974Z,1.90
2018-08-31T18:02:14.297Z,1.67
2018-08-31T18:04:42.629Z,1.70
2018-08-31T18:07:10.991Z,1.70
2018-08-31T18:09:39.375Z,1.70
2018-08-31T18:12:07.721Z,1.70
2018-08-31T18:14:36.051Z,1.73
2018-08-31T18:17:04.385Z,1.70
2018-08-31T18:19:32.813Z,1.80
2018-08-31T18:25:00.154Z,1.80
2018-08-31T18:27:28.456Z,1.33
2018-08-31T18:29:56.820Z,1.50
2018-08-31T18:32:25.132Z,1.70
2018-08-31T18:34:53.457Z,1.57
2018-08-31T18:37:21.777Z,1.77
2018-08-31T18:39:50.149Z,1.53
2018-08-31T18:42:18.451Z,1.43
2018-08-31T18:44:46.752Z,1.70
2018-08-31T18:47:15.055Z,2.00
2018-08-31T18:49:43.448Z,2.00
2018-08-31T18:52:11.780Z,1.53
2018-08-31T18:54:40.090Z,1.80
2018-08-31T18:57:08.497Z,2.17
2018-08-31T18:59:36.829Z,1.70
2018-08-31T19:02:05.218Z,1.90
2018-08-31T19:04:33.520Z,2.20
2018-08-31T19:07:01.895Z,1.83
2018-08-31T19:09:30.177Z,1.60
2018-08-31T19:11:58.489Z,1.53
2018-08-31T19:14:26.828Z,1.97
2018-08-31T19:16:55.179Z,2.10
2018-08-31T19:19:23.517Z,2.07
2018-08-31T19:21:51.827Z,2.00
2018-08-31T19:24:20.156Z,2.00
2018-08-31T19:29:23.088Z,2.30
2018-08-31T19:31:51.381Z,1.83
2018-08-31T19:34:19.688Z,2.13
2018-08-31T19:36:48.013Z,1.93
2018-08-31T19:39:16.404Z,2.03
2018-08-31T19:41:44.698Z,2.50
2018-08-31T19:44:13.029Z,1.87
2018-08-31T19:46:41.387Z,2.37
2018-08-31T19:49:09.649Z,2.20
2018-08-31T19:51:38.005Z,2.53
2018-08-31T19:54:06.376Z,2.30
2018-08-31T19:56:34.649Z,2.30
2018-08-31T19:59:02.960Z,2.20
2018-08-31T20:01:31.277Z,2.60
2018-08-31T20:03:59.598Z,2.27
2018-08-31T20:06:27.967Z,2.30
2018-08-31T20:08:56.218Z,2.13
2018-08-31T20:11:24.529Z,2.20
2018-08-31T20:13:52.909Z,2.33
2018-08-31T20:16:21.263Z,2.43
2018-08-31T20:18:49.482Z,2.50
2018-08-31T20:21:17.797Z,2.70
2018-08-31T20:23:46.200Z,2.33
2018-08-31T20:26:21.589Z,2.10
2018-08-31T20:28:49.905Z,2.03
2018-08-31T20:31:18.271Z,1.70
2018-08-31T20:33:46.659Z,2.30
2018-08-31T20:36:19.186Z,2.10
2018-08-31T20:38:47.612Z,1.97
2018-08-31T20:41:15.885Z,1.50
2018-08-31T20:43:44.200Z,1.57
2018-08-31T20:46:12.543Z,1.80
2018-08-31T20:48:40.877Z,1.50
2018-08-31T20:51:09.227Z,1.57
2018-08-31T20:53:37.591Z,1.87
2018-08-31T20:56:05.917Z,2.10
2018-08-31T20:58:34.269Z,1.63
2018-08-31T21:01:02.661Z,1.63
2018-08-31T21:03:30.998Z,2.23
2018-08-31T21:05:59.554Z,2.83
2018-08-31T21:08:27.905Z,2.87
2018-08-31T21:10:56.261Z,2.70
2018-08-31T21:13:24.570Z,5.87
2018-08-31T21:15:52.974Z,3.07
2018-08-31T21:18:21.287Z,3.10
2018-08-31T21:20:49.634Z,3.00
2018-08-31T21:23:17.992Z,3.00
2018-08-31T21:25:46.381Z,2.67
2018-08-31T21:28:14.693Z,2.60
2018-08-31T21:30:43.021Z,2.73
2018-08-31T21:33:11.338Z,2.90
2018-08-31T21:35:39.693Z,3.07
2018-08-31T21:38:08.073Z,2.83
2018-08-31T21:40:36.419Z,2.40
2018-08-31T21:43:04.744Z,2.70
2018-08-31T21:45:33.086Z,3.00
2018-08-31T21:48:01.496Z,2.80
2018-08-31T21:50:29.859Z,3.07
2018-08-31T21:52:58.184Z,3.10
2018-08-31T21:55:26.599Z,3.40
2018-08-31T21:57:55.872Z,3.33
2018-08-31T22:00:24.215Z,3.50
2018-08-31T22:02:52.537Z,2.70
2018-08-31T22:05:20.861Z,2.87
2018-08-31T22:07:49.257Z,3.10
2018-08-31T22:10:17.556Z,3.30
2018-08-31T22:12:45.895Z,3.07
2018-08-31T22:15:26.050Z,3.20
2018-08-31T22:17:54.783Z,3.00
2018-08-31T22:20:23.362Z,2.70
2018-08-31T22:22:53.099Z,2.53
2018-08-31T22:25:21.837Z,3.23
2018-08-31T22:27:50.203Z,2.80
2018-08-31T22:30:18.625Z,2.90
2018-08-31T22:32:46.997Z,2.67
2018-08-31T22:35:15.318Z,2.73
2018-08-31T22:37:43.758Z,2.90
2018-08-31T22:40:12.093Z,2.50
2018-08-31T22:42:40.453Z,2.70
2018-08-31T22:45:13.076Z,2.50
2018-08-31T22:47:42.284Z,2.70
2018-08-31T22:50:10.964Z,3.10
2018-08-31T22:52:39.658Z,2.73
2018-08-31T22:55:08.097Z,3.43
2018-08-31T22:57:36.438Z,3.07
2018-08-31T23:00:05.045Z,3.43
2018-08-31T23:02:33.425Z,3.07
2018-08-31T23:05:01.773Z,3.70
2018-08-31T23:07:35.557Z,3.07
2018-08-31T23:10:03.937Z,3.07
2018-08-31T23:12:32.280Z,3.70
2018-08-31T23:15:00.621Z,3.60
2018-08-31T23:17:29.884Z,3.50
2018-08-31T23:19:59.065Z,3.30
2018-08-31T23:22:28.602Z,3.67
2018-08-31T23:24:58.621Z,3.43
2018-08-31T23:27:27.512Z,3.80
2018-08-31T23:29:56.060Z,3.17
2018-08-31T23:32:24.987Z,3.67
2018-08-31T23:34:53.632Z,3.13
2018-08-31T23:37:21.984Z,3.33
2018-08-31T23:39:50.361Z,3.27
2018-08-31T23:42:18.693Z,3.10
2018-08-31T23:44:46.999Z,3.03
2018-08-31T23:47:15.333Z,4.00
2018-08-31T23:49:43.713Z,3.60
2018-08-31T23:52:12.070Z,2.63
2018-08-31T23:54:40.396Z,3.00
2018-08-31T23:57:08.749Z,3.13
2018-08-31T23:59:37.045Z,3.00
